Time;durP1;ratioP1;P1;durP2;ratioP2;P2;SDS_P1;SDS_P2;PMS_P1;PMS_P2;Temp;Humidity;BMP_temperature;BMP_pressure;BME280_temperature;BME280_humidity;BME280_pressure;Samples;Min_cycle;Max_cycle;Signal;HPM_P1;HPM_P2
2022/05/17 00:00:11;;;;;;;5.80;4.90;;;14.40;95.00;;;;;;4992666;28;20586;-56
2022/05/17 00:02:38;;;;;;;6.57;4.93;;;14.30;94.80;;;;;;4987256;28;20479;-56
2022/05/17 00:05:06;;;;;;;11.63;5.47;;;14.10;94.70;;;;;;4993852;28;20486;-56
2022/05/17 00:07:34;;;;;;;8.07;6.03;;;14.00;94.80;;;;;;4998868;28;20484;-56
2022/05/17 00:10:01;;;;;;;7.33;5.77;;;14.00;95.30;;;;;;4995556;28;20945;-56
2022/05/17 00:12:27;;;;;;;6.50;5.67;;;14.00;95.20;;;;;;4995567;28;20473;-56
2022/05/17 00:14:54;;;;;;;6.07;5.47;;;14.10;95.00;;;;;;4991254;28;20488;-57
2022/05/17 00:17:21;;;;;;;6.00;5.00;;;14.00;94.70;;;;;;4998617;28;20476;-56
2022/05/17 00:19:48;;;;;;;7.03;5.50;;;14.00;94.60;;;;;;4996405;28;20496;-57
2022/05/17 00:22:15;;;;;;;8.73;5.10;;;14.10;94.70;;;;;;5000225;28;20482;-57
2022/05/17 00:24:43;;;;;;;11.03;5.73;;;14.00;94.50;;;;;;4993164;28;21079;-57
2022/05/17 00:27:10;;;;;;;8.33;6.07;;;14.00;94.50;;;;;;5006079;28;21057;-56
2022/05/17 00:29:36;;;;;;;7.97;5.93;;;14.00;94.90;;;;;;5015088;28;20495;-56
2022/05/17 00:32:04;;;;;;;8.73;6.20;;;14.00;95.10;;;;;;5007841;28;20598;-56
2022/05/17 00:34:31;;;;;;;7.67;5.30;;;14.00;94.80;;;;;;5014368;28;20490;-56
2022/05/17 00:36:58;;;;;;;5.87;5.37;;;14.00;94.70;;;;;;5017952;28;20556;-56
2022/05/17 00:39:25;;;;;;;7.33;4.87;;;13.90;94.70;;;;;;5019558;28;20491;-57
2022/05/17 00:41:53;;;;;;;9.33;4.90;;;13.70;94.20;;;;;;5020549;28;21055;-56
2022/05/17 00:47:08;;;;;;;6.17;5.00;;;13.60;94.50;;;;;;5019251;28;20489;-56
2022/05/17 00:49:39;;;;;;;13.20;5.17;;;13.60;94.70;;;;;;5021135;28;20482;-56
2022/05/17 00:52:10;;;;;;;9.57;4.87;;;13.50;94.60;;;;;;5018424;28;20482;-56
2022/05/17 00:54:38;;;;;;;18.67;5.93;;;13.30;94.40;;;;;;5022298;28;21034;-57
2022/05/17 00:57:11;;;;;;;47.17;7.33;;;13.10;94.70;;;;;;5019171;28;21044;-57
2022/05/17 00:59:39;;;;;;;24.87;7.83;;;13.00;95.30;;;;;;5021822;28;20479;-57
2022/05/17 01:02:08;;;;;;;30.70;7.73;;;13.00;96.10;;;;;;5022582;28;20486;-57
2022/05/17 01:04:35;;;;;;;10.23;6.90;;;12.90;96.70;;;;;;5023580;28;20960;-57
2022/05/17 01:07:06;;;;;;;11.00;6.80;;;13.00;96.90;;;;;;5018926;28;20823;-57
2022/05/17 01:09:33;;;;;;;9.87;7.57;;;13.00;96.90;;;;;;5020181;28;20988;-57
2022/05/17 01:12:00;;;;;;;7.90;7.00;;;12.90;97.40;;;;;;5020261;28;20560;-57
2022/05/17 01:17:13;;;;;;;8.90;7.03;;;12.70;97.00;;;;;;5020312;28;20477;-57
2022/05/17 01:19:40;;;;;;;11.13;6.00;;;12.70;97.30;;;;;;5021351;28;20899;-57
2022/05/17 01:22:09;;;;;;;6.07;5.53;;;12.80;97.10;;;;;;5020017;28;20837;-56
2022/05/17 01:24:36;;;;;;;9.33;6.13;;;12.90;97.00;;;;;;5025969;28;20992;-57
2022/05/17 01:27:10;;;;;;;9.40;5.97;;;12.90;96.60;;;;;;5019706;28;20483;-57
2022/05/17 01:29:42;;;;;;;6.93;6.23;;;13.00;96.10;;;;;;5022100;28;20482;-57
2022/05/17 01:32:10;;;;;;;9.43;5.90;;;13.10;95.70;;;;;;5022330;28;20574;-57
2022/05/17 01:34:37;;;;;;;6.57;5.97;;;13.10;95.40;;;;;;5024744;28;20808;-56
2022/05/17 01:37:05;;;;;;;9.50;6.80;;;13.10;95.10;;;;;;5018147;28;20889;-57
2022/05/17 01:39:34;;;;;;;8.40;6.70;;;13.20;95.00;;;;;;5008569;28;20478;-56
2022/05/17 01:42:01;;;;;;;14.57;5.90;;;13.20;95.00;;;;;;5017181;28;20831;-56
2022/05/17 01:44:27;;;;;;;10.70;5.50;;;13.20;95.10;;;;;;5022452;28;20562;-56
2022/05/17 01:46:54;;;;;;;10.60;5.40;;;13.20;95.20;;;;;;5013812;28;21074;-56
2022/05/17 01:49:21;;;;;;;5.70;5.23;;;13.20;95.20;;;;;;5020386;28;20479;-56
2022/05/17 01:51:47;;;;;;;9.10;5.73;;;13.20;95.00;;;;;;5019521;28;20546;-56
2022/05/17 01:54:14;;;;;;;6.87;5.10;;;13.10;94.60;;;;;;5018344;28;20493;-56
2022/05/17 01:56:42;;;;;;;7.27;6.27;;;13.10;94.40;;;;;;5016527;28;20488;-56
2022/05/17 01:59:09;;;;;;;7.40;5.30;;;13.00;94.40;;;;;;5016898;28;21017;-56
2022/05/17 02:01:35;;;;;;;8.40;6.03;;;12.90;94.70;;;;;;5022447;28;20485;-56
2022/05/17 02:04:02;;;;;;;11.63;5.60;;;12.90;94.80;;;;;;5020246;28;20581;-56
2022/05/17 02:06:29;;;;;;;6.30;5.70;;;12.90;94.70;;;;;;5018096;28;20489;-56
2022/05/17 02:08:56;;;;;;;9.30;6.10;;;12.90;94.70;;;;;;5020771;28;20501;-56
2022/05/17 02:11:22;;;;;;;5.63;4.97;;;12.90;94.40;;;;;;5022153;28;20486;-57
2022/05/17 02:13:50;;;;;;;6.20;4.50;;;12.90;94.30;;;;;;5020363;28;20485;-57
2022/05/17 02:16:17;;;;;;;6.00;4.80;;;13.00;94.30;;;;;;5008520;28;20525;-56
2022/05/17 02:18:43;;;;;;;9.73;5.07;;;13.00;94.30;;;;;;5021062;28;20731;-56
2022/05/17 02:21:10;;;;;;;6.20;5.50;;;13.00;94.40;;;;;;5022240;28;20479;-57
2022/05/17 02:23:37;;;;;;;6.30;5.20;;;12.90;94.40;;;;;;5020509;28;20896;-56
2022/05/17 02:26:04;;;;;;;10.47;5.70;;;12.80;94.40;;;;;;5018331;28;20839;-56
2022/05/17 02:28:30;;;;;;;9.30;5.10;;;12.70;94.30;;;;;;5019936;28;20478;-56
2022/05/17 02:30:58;;;;;;;10.57;5.63;;;12.70;94.40;;;;;;5019112;28;20853;-56
2022/05/17 02:33:25;;;;;;;10.27;6.17;;;12.50;94.50;;;;;;5020679;28;20493;-56
2022/05/17 02:35:52;;;;;;;12.07;5.87;;;12.50;94.70;;;;;;5017134;28;20491;-56
2022/05/17 02:38:18;;;;;;;16.83;6.50;;;12.50;94.80;;;;;;5021786;28;20473;-56
2022/05/17 02:40:45;;;;;;;24.07;6.17;;;12.40;95.20;;;;;;5019158;28;20509;-56
2022/05/17 02:43:14;;;;;;;31.67;7.73;;;12.50;95.40;;;;;;5001942;28;21049;-56
2022/05/17 02:45:41;;;;;;;21.40;7.43;;;12.50;95.40;;;;;;5016398;28;20470;-57
2022/05/17 02:48:09;;;;;;;27.60;7.37;;;12.60;95.50;;;;;;5016593;28;20487;-57
2022/05/17 02:50:36;;;;;;;26.70;7.13;;;12.60;95.70;;;;;;5019278;28;20497;-56
2022/05/17 02:53:02;;;;;;;14.23;6.07;;;12.70;95.50;;;;;;5016570;28;20490;-56
2022/05/17 02:55:29;;;;;;;21.53;6.70;;;12.70;95.30;;;;;;5017091;28;20559;-57
2022/05/17 02:57:56;;;;;;;63.57;8.40;;;12.80;95.10;;;;;;5018576;28;20495;-56
2022/05/17 03:00:24;;;;;;;34.87;8.60;;;12.80;95.00;;;;;;5019383;28;20478;-57
2022/05/17 03:02:51;;;;;;;23.93;8.10;;;12.90;95.20;;;;;;5019853;28;20494;-57
2022/05/17 03:05:20;;;;;;;16.50;7.80;;;12.90;95.40;;;;;;5014391;28;20614;-56
2022/05/17 03:07:48;;;;;;;14.93;6.77;;;12.90;95.30;;;;;;5017986;28;20491;-56
2022/05/17 03:10:14;;;;;;;35.53;8.27;;;13.00;95.10;;;;;;5020056;28;20565;-57
2022/05/17 03:12:41;;;;;;;15.37;6.87;;;13.00;94.90;;;;;;5018755;28;20498;-57
2022/05/17 03:15:10;;;;;;;31.27;8.53;;;13.00;94.80;;;;;;5016547;28;20485;-57
2022/05/17 03:17:36;;;;;;;34.70;7.70;;;13.00;95.00;;;;;;5017478;28;20489;-57
2022/05/17 03:20:04;;;;;;;41.90;8.80;;;12.80;95.00;;;;;;5008195;28;20487;-57
2022/05/17 03:22:33;;;;;;;25.97;7.07;;;12.60;95.20;;;;;;5017560;28;20489;-57
2022/05/17 03:24:59;;;;;;;16.80;6.23;;;12.40;95.60;;;;;;5015751;28;20503;-57
2022/05/17 03:27:26;;;;;;;21.90;7.10;;;12.40;95.60;;;;;;5017755;28;20483;-57
2022/05/17 03:29:53;;;;;;;17.60;7.07;;;12.50;95.60;;;;;;5016366;28;20907;-58
2022/05/17 03:32:20;;;;;;;13.30;7.10;;;12.50;95.40;;;;;;5018502;28;20491;-57
2022/05/17 03:34:46;;;;;;;17.80;6.83;;;12.60;95.40;;;;;;5010320;28;20486;-56
2022/05/17 03:37:13;;;;;;;22.10;7.03;;;12.60;95.40;;;;;;5015348;28;20487;-56
2022/05/17 03:39:41;;;;;;;24.13;6.37;;;12.70;95.30;;;;;;5017678;28;20491;-56
2022/05/17 03:42:09;;;;;;;8.50;6.60;;;12.60;95.20;;;;;;5018323;28;20496;-56
2022/05/17 03:44:36;;;;;;;30.63;8.63;;;12.60;95.30;;;;;;4982697;28;1064271;-56
2022/05/17 03:47:04;;;;;;;14.03;6.57;;;12.50;95.40;;;;;;5017846;28;20768;-56
2022/05/17 03:49:31;;;;;;;8.03;5.97;;;12.50;95.50;;;;;;5019045;28;20500;-56
2022/05/17 03:51:58;;;;;;;11.10;7.33;;;12.50;95.30;;;;;;5019226;28;20492;-56
2022/05/17 03:54:25;;;;;;;8.03;6.30;;;12.60;95.20;;;;;;5020279;28;20913;-56
2022/05/17 03:56:54;;;;;;;17.23;7.33;;;12.60;95.20;;;;;;5016141;28;20488;-57
2022/05/17 03:59:20;;;;;;;9.70;6.03;;;12.50;95.50;;;;;;5017453;28;20477;-56
2022/05/17 04:01:47;;;;;;;14.80;6.90;;;12.50;95.50;;;;;;5011117;28;20484;-56
2022/05/17 04:04:14;;;;;;;23.13;6.60;;;12.30;95.70;;;;;;5009343;28;20478;-56
2022/05/17 04:06:41;;;;;;;7.97;6.60;;;12.20;96.00;;;;;;5002757;28;20709;-56
2022/05/17 04:09:08;;;;;;;9.90;6.33;;;12.20;95.90;;;;;;5011319;28;20557;-56
2022/05/17 04:11:35;;;;;;;11.00;6.23;;;12.30;95.90;;;;;;5015944;28;20489;-57
2022/05/17 04:14:04;;;;;;;16.60;7.30;;;12.20;96.00;;;;;;5018732;28;20531;-57
2022/05/17 04:16:32;;;;;;;19.83;7.00;;;12.10;96.20;;;;;;5017668;28;20490;-58
2022/05/17 04:18:59;;;;;;;24.70;7.63;;;12.00;96.40;;;;;;5020018;28;20576;-57
2022/05/17 04:21:26;;;;;;;11.10;6.87;;;11.90;96.80;;;;;;5019553;28;21010;-57
2022/05/17 04:23:53;;;;;;;9.93;6.57;;;11.90;97.10;;;;;;5014891;28;20910;-56
2022/05/17 04:26:20;;;;;;;14.13;7.30;;;12.00;97.00;;;;;;5025923;28;20496;-56
2022/05/17 04:28:47;;;;;;;16.13;7.27;;;12.10;96.90;;;;;;5016628;28;20844;-56
2022/05/17 04:31:15;;;;;;;18.60;7.60;;;12.10;97.00;;;;;;5018877;28;20497;-56
2022/05/17 04:33:42;;;;;;;9.40;7.23;;;12.10;97.30;;;;;;5019441;28;20775;-56
2022/05/17 04:36:09;;;;;;;14.73;7.50;;;12.00;97.60;;;;;;5017695;28;21047;-56
2022/05/17 04:38:36;;;;;;;19.20;7.50;;;12.00;97.70;;;;;;5015630;28;21113;-56
2022/05/17 04:41:03;;;;;;;9.33;6.90;;;12.00;98.00;;;;;;5018398;28;20486;-56
2022/05/17 04:43:31;;;;;;;13.43;8.07;;;12.10;98.10;;;;;;5012884;28;20490;-57
2022/05/17 04:45:57;;;;;;;20.63;8.17;;;12.20;97.80;;;;;;5017004;28;20482;-57
2022/05/17 04:48:25;;;;;;;25.90;8.70;;;12.30;97.70;;;;;;5014644;28;21016;-57
2022/05/17 04:50:53;;;;;;;29.97;9.40;;;12.30;97.60;;;;;;5017760;28;20486;-57
2022/05/17 04:53:19;;;;;;;24.83;8.60;;;12.40;97.70;;;;;;5019782;28;20483;-57
2022/05/17 04:55:47;;;;;;;33.40;8.23;;;12.60;97.60;;;;;;5016743;28;20487;-57
2022/05/17 04:58:14;;;;;;;17.90;7.57;;;12.70;97.50;;;;;;5017892;28;20823;-57
2022/05/17 05:00:40;;;;;;;20.73;8.00;;;12.80;97.50;;;;;;5017602;28;20540;-57
2022/05/17 05:03:07;;;;;;;17.80;7.90;;;12.90;97.30;;;;;;5018918;28;20490;-57
2022/05/17 05:05:35;;;;;;;13.63;8.03;;;12.90;97.30;;;;;;5017843;28;20501;-57
2022/05/17 05:08:02;;;;;;;9.80;8.10;;;12.90;97.30;;;;;;5018183;28;20547;-57
2022/05/17 05:10:28;;;;;;;10.43;7.50;;;13.00;97.40;;;;;;5018555;28;20565;-57
2022/05/17 05:12:55;;;;;;;9.50;8.20;;;13.00;97.60;;;;;;5018225;28;20483;-57
2022/05/17 05:15:21;;;;;;;8.60;7.70;;;12.90;97.80;;;;;;5016368;28;20987;-57
2022/05/17 05:17:48;;;;;;;9.33;7.93;;;12.90;98.30;;;;;;5013691;28;20481;-56
2022/05/17 05:20:16;;;;;;;8.80;7.43;;;12.90;98.70;;;;;;5028424;28;20473;-56
2022/05/17 05:22:45;;;;;;;8.40;7.60;;;13.00;98.90;;;;;;5020595;28;20567;-56
2022/05/17 05:25:13;;;;;;;8.40;7.30;;;13.20;98.90;;;;;;5019919;28;20483;-55
2022/05/17 05:27:40;;;;;;;9.63;8.63;;;13.50;98.70;;;;;;5017718;28;20479;-55
2022/05/17 05:30:09;;;;;;;8.37;7.33;;;13.70;98.70;;;;;;5022047;28;20511;-54
2022/05/17 05:32:36;;;;;;;7.90;6.80;;;13.90;98.50;;;;;;5021691;28;20520;-54
2022/05/17 05:35:03;;;;;;;7.10;6.27;;;14.20;98.60;;;;;;5018348;28;20489;-54
2022/05/17 05:37:30;;;;;;;7.23;6.60;;;14.40;98.50;;;;;;5021064;28;20475;-54
2022/05/17 05:39:58;;;;;;;8.17;7.10;;;14.60;98.30;;;;;;5021492;28;20574;-54
2022/05/17 05:42:25;;;;;;;7.60;6.90;;;14.80;98.30;;;;;;5021579;28;20482;-55
2022/05/17 05:44:52;;;;;;;7.53;6.93;;;15.00;98.20;;;;;;5017394;28;20491;-54
2022/05/17 05:47:19;;;;;;;8.20;6.57;;;15.20;98.00;;;;;;5019864;28;20467;-54
2022/05/17 05:49:46;;;;;;;7.80;7.00;;;15.40;98.40;;;;;;5018530;28;20735;-54
2022/05/17 05:52:13;;;;;;;7.57;6.83;;;15.50;98.30;;;;;;5013576;28;20989;-53
2022/05/17 05:54:40;;;;;;;8.07;7.27;;;15.60;98.10;;;;;;5020037;28;20562;-54
2022/05/17 05:57:08;;;;;;;7.60;6.50;;;15.70;98.10;;;;;;5018560;28;20492;-54
2022/05/17 05:59:35;;;;;;;6.70;6.10;;;15.70;98.10;;;;;;5010747;28;20476;-54
2022/05/17 06:02:02;;;;;;;7.20;6.50;;;15.70;98.30;;;;;;5020953;28;20546;-54
2022/05/17 06:04:28;;;;;;;7.50;6.80;;;15.70;99.10;;;;;;5018899;28;20488;-54
2022/05/17 06:06:56;;;;;;;8.60;7.40;;;15.80;98.60;;;;;;5016636;28;20488;-54
2022/05/17 06:09:23;;;;;;;7.80;7.10;;;15.90;98.90;;;;;;5022051;28;20488;-54
2022/05/17 06:11:50;;;;;;;9.20;7.10;;;16.00;98.80;;;;;;5017721;28;20522;-54
2022/05/17 06:14:20;;;;;;;7.63;6.93;;;16.10;99.10;;;;;;5015020;28;20496;-54
2022/05/17 06:16:47;;;;;;;8.43;7.63;;;16.20;98.80;;;;;;5017168;28;20550;-54
2022/05/17 06:19:13;;;;;;;9.13;7.20;;;16.30;98.80;;;;;;5019406;28;20856;-54
2022/05/17 06:21:40;;;;;;;8.10;7.43;;;16.50;98.90;;;;;;5018583;28;20483;-54
2022/05/17 06:24:07;;;;;;;8.73;7.93;;;16.70;98.70;;;;;;5018221;28;20900;-54
2022/05/17 06:26:34;;;;;;;11.40;8.17;;;16.90;98.60;;;;;;5016824;28;20469;-54
2022/05/17 06:29:02;;;;;;;12.97;7.10;;;17.10;98.20;;;;;;5013401;28;20539;-54
2022/05/17 06:31:30;;;;;;;7.80;7.10;;;17.20;98.80;;;;;;5016459;28;21076;-55
2022/05/17 06:33:57;;;;;;;7.87;7.03;;;17.30;98.60;;;;;;5014183;28;20836;-55
2022/05/17 06:36:24;;;;;;;9.10;8.20;;;17.50;98.80;;;;;;5016197;28;20488;-55
2022/05/17 06:38:50;;;;;;;9.20;8.30;;;17.70;98.90;;;;;;5020353;28;20472;-55
2022/05/17 06:41:17;;;;;;;9.43;8.07;;;17.90;98.90;;;;;;5020319;28;20469;-55
2022/05/17 06:43:44;;;;;;;13.93;7.40;;;18.10;98.70;;;;;;5020290;28;20464;-55
2022/05/17 06:46:10;;;;;;;8.90;7.90;;;18.30;98.30;;;;;;5018425;28;20530;-55
2022/05/17 06:48:38;;;;;;;9.50;8.60;;;18.50;98.20;;;;;;5021377;28;20489;-56
2022/05/17 06:51:07;;;;;;;10.03;8.50;;;18.70;97.90;;;;;;5017944;28;20469;-55
2022/05/17 06:53:34;;;;;;;9.03;8.03;;;18.90;97.80;;;;;;5019022;28;24412;-56
2022/05/17 06:56:04;;;;;;;9.80;7.97;;;19.20;97.70;;;;;;5017384;28;20570;-56
2022/05/17 06:58:31;;;;;;;8.37;7.10;;;19.30;97.80;;;;;;5019727;28;20530;-56
2022/05/17 07:00:57;;;;;;;11.90;8.43;;;19.50;97.40;;;;;;5015595;28;20946;-56
2022/05/17 07:03:24;;;;;;;8.80;7.90;;;19.80;97.00;;;;;;5019861;28;20724;-56
2022/05/17 07:05:52;;;;;;;8.07;7.30;;;20.00;97.00;;;;;;5010895;28;20504;-55
2022/05/17 07:08:19;;;;;;;10.03;9.13;;;20.20;97.00;;;;;;5020989;28;20483;-55
2022/05/17 07:13:45;;;;;;;12.23;9.13;;;20.70;96.10;;;;;;4942597;28;21027;-55
2022/05/17 07:16:12;;;;;;;11.60;8.17;;;21.10;95.70;;;;;;4926373;28;20585;-56
2022/05/17 07:18:38;;;;;;;10.13;7.90;;;21.40;96.30;;;;;;4969740;28;20600;-59
2022/05/17 07:21:06;;;;;;;9.43;8.53;;;21.70;95.00;;;;;;5006234;28;20490;-55
2022/05/17 07:23:33;;;;;;;8.47;7.67;;;22.00;95.90;;;;;;5029943;28;20850;-55
2022/05/17 07:26:00;;;;;;;9.33;7.93;;;22.20;95.40;;;;;;5017017;28;20515;-55
2022/05/17 07:28:26;;;;;;;11.33;9.90;;;22.40;95.10;;;;;;5017515;28;20576;-55
2022/05/17 07:30:53;;;;;;;9.67;8.60;;;22.70;95.10;;;;;;5014097;28;20557;-55
2022/05/17 07:33:20;;;;;;;9.10;8.30;;;22.90;95.00;;;;;;5005707;28;20478;-55
2022/05/17 07:35:48;;;;;;;10.60;9.03;;;23.10;94.30;;;;;;5017717;28;20582;-55
2022/05/17 07:38:17;;;;;;;10.23;9.23;;;23.30;93.80;;;;;;5017807;28;20481;-55
2022/05/17 07:40:44;;;;;;;10.27;9.27;;;23.50;93.50;;;;;;5017924;28;20591;-55
2022/05/17 07:43:12;;;;;;;9.20;8.30;;;23.70;93.60;;;;;;5019567;28;20496;-55
2022/05/17 07:45:39;;;;;;;10.67;9.60;;;24.00;94.00;;;;;;5017875;28;20492;-56
2022/05/17 07:48:06;;;;;;;9.50;8.30;;;24.20;93.90;;;;;;5019422;28;20793;-56
2022/05/17 07:50:33;;;;;;;12.23;8.80;;;24.30;93.40;;;;;;5018380;28;20558;-56
2022/05/17 07:53:07;;;;;;;6.13;5.63;;;24.50;93.50;;;;;;5019201;28;20847;-56
2022/05/17 07:55:35;;;;;;;10.00;6.77;;;24.40;91.00;;;;;;5018469;28;20915;-55
2022/05/17 07:58:02;;;;;;;11.20;6.90;;;24.60;91.80;;;;;;5018474;28;20560;-55
2022/05/17 08:00:29;;;;;;;10.43;6.50;;;24.60;91.50;;;;;;5019367;28;20477;-57
2022/05/17 08:02:58;;;;;;;13.13;7.40;;;24.70;90.00;;;;;;5019404;28;20491;-56
2022/05/17 08:05:25;;;;;;;9.73;6.37;;;24.80;91.00;;;;;;5016466;28;20563;-55
2022/05/17 08:07:52;;;;;;;7.43;6.73;;;25.10;91.70;;;;;;5013637;28;20479;-56
2022/05/17 08:10:19;;;;;;;5.80;5.30;;;25.40;91.20;;;;;;5018718;28;20771;-56
2022/05/17 08:12:47;;;;;;;7.40;5.70;;;25.30;88.50;;;;;;5019297;28;20459;-56
2022/05/17 08:15:14;;;;;;;9.10;6.40;;;25.20;90.00;;;;;;5015805;28;20902;-56
2022/05/17 08:17:41;;;;;;;6.47;5.87;;;25.50;90.60;;;;;;5018593;28;20488;-56
2022/05/17 08:20:10;;;;;;;6.10;5.50;;;25.60;90.00;;;;;;5018740;28;20488;-56
2022/05/17 08:22:39;;;;;;;5.83;5.10;;;25.80;88.90;;;;;;5018158;28;20481;-56
2022/05/17 08:27:54;;;;;;;7.33;5.80;;;25.90;85.50;;;;;;5018736;28;20537;-56
2022/05/17 08:30:22;;;;;;;8.07;4.70;;;26.10;90.00;;;;;;5014858;28;20480;-56
2022/05/17 08:35:38;;;;;;;8.53;6.20;;;26.20;86.30;;;;;;5007631;28;20533;-56
2022/05/17 08:38:05;;;;;;;6.73;5.20;;;26.10;83.70;;;;;;5017646;28;20852;-54
2022/05/17 08:40:37;;;;;;;6.17;5.57;;;25.90;83.00;;;;;;5018252;28;20497;-56
2022/05/17 08:43:15;;;;;;;7.67;5.40;;;25.40;85.40;;;;;;5014920;28;20492;-56
2022/05/17 08:45:53;;;;;;;5.40;4.90;;;25.30;86.10;;;;;;5014902;28;20503;-56
2022/05/17 08:48:21;;;;;;;9.10;5.50;;;25.10;83.40;;;;;;5015773;28;20998;-57
2022/05/17 08:50:50;;;;;;;5.33;4.80;;;24.90;84.20;;;;;;5017097;28;20492;-57
2022/05/17 08:53:19;;;;;;;5.87;5.17;;;24.80;85.00;;;;;;5018807;28;20936;-57
2022/05/17 08:55:48;;;;;;;6.33;4.83;;;24.90;83.40;;;;;;5016950;28;20531;-57
2022/05/17 08:58:20;;;;;;;6.97;4.93;;;25.00;84.00;;;;;;5021731;28;21005;-57
2022/05/17 09:00:51;;;;;;;8.37;5.27;;;25.00;84.60;;;;;;5020909;28;20473;-58
2022/05/17 09:03:37;;;;;;;8.10;5.17;;;25.20;83.10;;;;;;5021820;28;20487;-57
2022/05/17 09:06:10;;;;;;;5.53;4.97;;;25.40;85.10;;;;;;5015492;28;20480;-58
2022/05/17 09:08:43;;;;;;;8.00;5.60;;;25.80;83.40;;;;;;5022159;28;20485;-57
2022/05/17 09:11:20;;;;;;;7.07;5.83;;;25.90;82.70;;;;;;5021946;28;20900;-58
2022/05/17 09:13:53;;;;;;;6.70;5.70;;;25.50;82.30;;;;;;5021146;28;20484;-58
2022/05/17 09:16:21;;;;;;;9.70;6.50;;;25.40;82.30;;;;;;5018961;28;20555;-57
2022/05/17 09:18:49;;;;;;;8.43;6.10;;;25.30;83.70;;;;;;5011446;28;21064;-58
2022/05/17 09:21:35;;;;;;;5.97;4.70;;;25.60;88.20;;;;;;5017949;28;20492;-58
2022/05/17 09:24:05;;;;;;;7.47;6.20;;;25.70;83.10;;;;;;5021134;28;20496;-58
2022/05/17 09:26:33;;;;;;;9.53;6.27;;;25.90;82.90;;;;;;5020846;28;20483;-58
2022/05/17 09:29:05;;;;;;;7.40;5.00;;;25.90;79.50;;;;;;5016471;28;20483;-57
2022/05/17 09:31:34;;;;;;;6.53;5.10;;;25.90;81.60;;;;;;5011933;28;21056;-58
2022/05/17 09:34:03;;;;;;;5.97;5.43;;;26.30;84.10;;;;;;5020366;28;20982;-58
2022/05/17 09:36:41;;;;;;;7.70;6.43;;;26.70;84.50;;;;;;5020029;28;20481;-58
2022/05/17 09:39:08;;;;;;;6.53;5.90;;;27.00;81.40;;;;;;5021014;28;20503;-58
2022/05/17 09:41:39;;;;;;;8.07;6.33;;;27.40;83.30;;;;;;5022308;28;20985;-58
2022/05/17 09:44:11;;;;;;;6.00;5.40;;;27.80;82.50;;;;;;5017976;28;20478;-61
2022/05/17 09:46:44;;;;;;;9.97;6.37;;;28.10;79.70;;;;;;5020372;28;20476;-58
2022/05/17 09:54:55;;;;;;;8.30;5.70;;;27.50;76.50;;;;;;5015639;28;20870;-59
2022/05/17 09:57:24;;;;;;;8.07;6.10;;;27.40;79.40;;;;;;5020719;28;20443;-58
2022/05/17 09:59:55;;;;;;;6.23;5.73;;;27.10;76.90;;;;;;5020263;28;20538;-62
2022/05/17 10:02:40;;;;;;;12.53;6.10;;;27.00;78.00;;;;;;5020320;28;20786;-59
2022/05/17 10:05:17;;;;;;;7.73;6.67;;;27.20;80.30;;;;;;5008307;28;20846;-60
2022/05/17 10:07:50;;;;;;;10.27;6.00;;;27.50;80.40;;;;;;5014668;28;21019;-59
2022/05/17 10:10:25;;;;;;;8.60;5.80;;;27.90;81.20;;;;;;5019834;28;20456;-58
2022/05/17 10:12:56;;;;;;;6.47;5.87;;;28.30;80.20;;;;;;5017929;28;20862;-59
2022/05/17 10:15:26;;;;;;;7.03;5.60;;;28.30;76.50;;;;;;5018647;28;20554;-59
2022/05/17 10:17:57;;;;;;;8.97;5.60;;;28.00;76.10;;;;;;5018984;28;20455;-59
2022/05/17 10:20:27;;;;;;;7.87;7.10;;;27.80;74.90;;;;;;5017655;28;20489;-59
2022/05/17 10:23:00;;;;;;;9.73;5.13;;;27.60;79.60;;;;;;5016163;28;20504;-59
2022/05/17 10:25:32;;;;;;;5.43;4.93;;;27.70;77.50;;;;;;5018188;28;20817;-59
2022/05/17 10:28:07;;;;;;;9.90;5.30;;;27.90;78.90;;;;;;5018521;28;21188;-61
2022/05/17 10:30:44;;;;;;;9.03;5.33;;;28.20;78.00;;;;;;5008566;28;20868;-61
2022/05/17 10:33:17;;;;;;;6.27;5.50;;;28.60;76.80;;;;;;5021142;28;20574;-61
2022/05/17 10:35:47;;;;;;;10.20;5.00;;;28.90;78.90;;;;;;5019177;28;20512;-61
2022/05/17 10:38:18;;;;;;;9.40;6.20;;;29.20;76.70;;;;;;5017104;28;20469;-61
2022/05/17 10:40:48;;;;;;;6.07;4.90;;;29.40;74.10;;;;;;5020051;28;20472;-61
2022/05/17 10:43:22;;;;;;;8.90;5.67;;;29.30;70.00;;;;;;5020832;28;20998;-59
2022/05/17 10:46:00;;;;;;;5.90;5.30;;;29.00;70.80;;;;;;5014468;28;20448;-61
2022/05/17 10:48:38;;;;;;;5.47;4.97;;;28.60;72.30;;;;;;5015532;28;20858;-60
2022/05/17 10:51:13;;;;;;;6.80;5.30;;;28.40;73.30;;;;;;5017460;28;20580;-62
2022/05/17 10:53:54;;;;;;;5.83;4.77;;;28.40;72.80;;;;;;5009525;28;20480;-61
2022/05/17 10:56:31;;;;;;;4.47;4.17;;;28.60;72.90;;;;;;5015997;28;20856;-61
2022/05/17 10:59:08;;;;;;;6.80;5.00;;;28.90;74.80;;;;;;5018233;28;20479;-61
2022/05/17 11:01:44;;;;;;;6.00;4.37;;;29.30;74.40;;;;;;5021202;28;20828;-62
2022/05/17 11:04:23;;;;;;;5.60;5.10;;;29.40;74.60;;;;;;5016672;28;20460;-62
2022/05/17 11:07:01;;;;;;;5.40;5.00;;;29.70;73.90;;;;;;5016394;28;20911;-61
2022/05/17 11:09:35;;;;;;;6.23;5.63;;;29.90;74.00;;;;;;5016726;28;21001;-66
2022/05/17 11:12:05;;;;;;;6.57;5.63;;;30.10;72.20;;;;;;5018258;28;20903;-61
2022/05/17 11:14:38;;;;;;;6.13;4.83;;;30.20;70.60;;;;;;5016050;28;20453;-61
2022/05/17 11:17:14;;;;;;;6.40;4.67;;;30.10;65.30;;;;;;5016522;28;20477;-61
2022/05/17 11:19:45;;;;;;;8.17;5.50;;;29.80;66.40;;;;;;5013231;28;20467;-61
2022/05/17 11:22:16;;;;;;;9.13;5.33;;;29.50;71.20;;;;;;5019972;28;20539;-60
2022/05/17 11:25:07;;;;;;;4.90;4.50;;;29.40;69.60;;;;;;5016294;28;20473;-60
2022/05/17 11:27:47;;;;;;;12.90;5.60;;;29.30;70.40;;;;;;5009187;28;20477;-60
2022/05/17 11:30:21;;;;;;;5.33;4.90;;;29.50;72.80;;;;;;5018434;28;20529;-60
2022/05/17 11:33:10;;;;;;;6.00;5.23;;;29.90;72.40;;;;;;5011521;28;20610;-62
2022/05/17 11:35:53;;;;;;;7.70;4.83;;;29.60;65.30;;;;;;5002241;28;21202;-59
2022/05/17 11:38:41;;;;;;;4.30;4.00;;;29.80;70.90;;;;;;5012273;28;21094;-60
2022/05/17 11:41:09;;;;;;;5.40;4.23;;;29.70;67.20;;;;;;5005169;28;20565;-60
2022/05/17 11:43:47;;;;;;;6.13;5.30;;;29.60;67.30;;;;;;5019804;28;20451;-61
2022/05/17 11:46:54;;;;;;;6.00;4.97;;;29.90;72.20;;;;;;4988068;28;20637;-62
2022/05/17 11:49:45;;;;;;;5.23;4.83;;;30.00;70.40;;;;;;5017077;28;20472;-61
2022/05/17 11:52:29;;;;;;;6.47;5.57;;;29.90;70.70;;;;;;5006024;28;20443;-61
2022/05/17 11:54:57;;;;;;;7.93;5.20;;;29.90;73.10;;;;;;5018098;28;20488;-62
2022/05/17 11:58:07;;;;;;;6.00;5.40;;;29.90;69.50;;;;;;5017118;28;20497;-62
2022/05/17 12:00:49;;;;;;;8.30;6.13;;;29.70;69.60;;;;;;5012622;28;20471;-62
2022/05/17 12:03:54;;;;;;;5.00;4.60;;;29.50;70.60;;;;;;5001194;28;20496;-62
2022/05/17 12:06:44;;;;;;;10.77;5.77;;;29.80;70.80;;;;;;5000213;28;20478;-62
2022/05/17 12:09:31;;;;;;;6.47;4.83;;;30.00;70.70;;;;;;5001090;28;20464;-61
2022/05/17 12:12:38;;;;;;;6.83;5.20;;;29.80;68.50;;;;;;4995951;28;20456;-61
2022/05/17 12:15:17;;;;;;;5.80;4.97;;;29.60;66.70;;;;;;5015374;28;20455;-62
2022/05/17 12:17:55;;;;;;;4.90;4.50;;;29.70;72.10;;;;;;5015959;28;20534;-62
2022/05/17 12:20:29;;;;;;;6.20;4.97;;;29.80;71.00;;;;;;5008332;28;20864;-62
2022/05/17 12:23:05;;;;;;;7.77;5.17;;;30.00;69.80;;;;;;5016861;28;20577;-62
2022/05/17 12:25:39;;;;;;;7.20;5.40;;;30.10;69.90;;;;;;5015248;28;20611;-61
2022/05/17 12:28:10;;;;;;;6.10;5.43;;;30.10;67.70;;;;;;5017649;28;21025;-63
2022/05/17 12:30:54;;;;;;;5.80;4.93;;;30.20;68.70;;;;;;5018881;28;20476;-62
2022/05/17 12:33:23;;;;;;;6.43;4.27;;;30.20;68.30;;;;;;5012840;28;20455;-63
2022/05/17 12:35:52;;;;;;;6.13;4.70;;;30.00;67.70;;;;;;5019328;28;20455;-61
2022/05/17 12:44:06;;;;;;;5.03;4.20;;;29.70;70.00;;;;;;5018648;28;20480;-64
2022/05/17 12:46:36;;;;;;;7.63;4.80;;;29.30;63.90;;;;;;5018503;28;20494;-64
2022/05/17 12:49:14;;;;;;;5.70;4.93;;;29.20;65.00;;;;;;5021081;28;21180;-63
2022/05/17 12:51:41;;;;;;;6.57;4.30;;;29.10;64.60;;;;;;5019729;28;20496;-62
2022/05/17 12:54:14;;;;;;;4.70;4.40;;;29.10;64.40;;;;;;5014644;28;20947;-66
2022/05/17 12:56:43;;;;;;;5.60;5.07;;;29.20;65.40;;;;;;5016431;28;20481;-63
2022/05/17 12:59:12;;;;;;;5.13;3.93;;;29.30;68.40;;;;;;4998430;28;20465;-62
2022/05/17 13:01:40;;;;;;;5.27;4.20;;;29.40;66.30;;;;;;4986392;28;20535;-62
2022/05/17 13:04:10;;;;;;;5.13;4.63;;;29.90;69.20;;;;;;4996979;28;20873;-62
2022/05/17 13:06:39;;;;;;;4.77;4.47;;;29.90;66.80;;;;;;4985749;28;20547;-62
2022/05/17 13:09:07;;;;;;;5.30;4.37;;;30.10;64.70;;;;;;4999932;28;20990;-58
2022/05/17 13:11:35;;;;;;;4.90;4.40;;;29.90;67.30;;;;;;5000460;28;20489;-59
2022/05/17 13:14:09;;;;;;;4.43;4.03;;;30.10;69.00;;;;;;4999788;28;20467;-60
2022/05/17 13:16:40;;;;;;;7.77;4.93;;;30.30;66.80;;;;;;4994416;28;20460;-62
2022/05/17 13:19:13;;;;;;;5.13;4.03;;;30.50;65.90;;;;;;5001139;28;20460;-61
2022/05/17 13:21:42;;;;;;;5.33;3.77;;;30.40;61.90;;;;;;5002087;28;20545;-62